sensor_id;sensor_type;location;lat;lon;timestamp;pressure;altitude;pressure_sealevel;temperature;humidity
71361;BME280;59166;48.908;1.870;2024-02-15T00:01:39;100490.03;;;12.71;100.00
71361;BME280;59166;48.908;1.870;2024-02-15T00:06:40;100484.06;;;12.69;100.00
71361;BME280;59166;48.908;1.870;2024-02-15T00:11:41;100484.59;;;12.61;100.00
71361;BME280;59166;48.908;1.870;2024-02-15T00:16:43;100477.00;;;12.58;100.00
71361;BME280;59166;48.908;1.870;2024-02-15T00:21:44;100463.47;;;12.53;100.00
71361;BME280;59166;48.908;1.870;2024-02-15T00:26:45;100472.63;;;12.47;100.00
71361;BME280;59166;48.908;1.870;2024-02-15T00:31:47;100477.81;;;12.48;100.00
71361;BME280;59166;48.908;1.870;2024-02-15T00:36:48;100474.56;;;12.46;100.00
71361;BME280;59166;48.908;1.870;2024-02-15T00:41:49;100471.81;;;12.41;100.00
71361;BME280;59166;48.908;1.870;2024-02-15T00:46:51;100479.69;;;12.43;100.00
71361;BME280;59166;48.908;1.870;2024-02-15T00:51:52;100478.59;;;12.38;100.00
71361;BME280;59166;48.908;1.870;2024-02-15T00:56:52;100472.63;;;12.36;100.00
71361;BME280;59166;48.908;1.870;2024-02-15T01:01:55;100469.38;;;12.39;100.00
71361;BME280;59166;48.908;1.870;2024-02-15T01:06:55;100469.38;;;12.39;100.00
71361;BME280;59166;48.908;1.870;2024-02-15T01:11:56;100455.31;;;12.43;100.00
71361;BME280;59166;48.908;1.870;2024-02-15T01:16:59;100454.47;;;12.37;100.00
71361;BME280;59166;48.908;1.870;2024-02-15T01:21:59;100451.75;;;12.37;100.00
71361;BME280;59166;48.908;1.870;2024-02-15T01:27:00;100454.19;;;12.33;100.00
71361;BME280;59166;48.908;1.870;2024-02-15T01:32:03;100445.81;;;12.35;100.00
71361;BME280;59166;48.908;1.870;2024-02-15T01:37:04;100442.22;;;12.24;100.00
71361;BME280;59166;48.908;1.870;2024-02-15T01:42:05;100443.03;;;12.15;100.00
71361;BME280;59166;48.908;1.870;2024-02-15T01:47:07;100441.69;;;12.17;100.00
71361;BME280;59166;48.908;1.870;2024-02-15T01:52:09;100432.44;;;12.13;100.00
71361;BME280;59166;48.908;1.870;2024-02-15T01:57:10;100424.06;;;12.05;100.00
71361;BME280;59166;48.908;1.870;2024-02-15T02:02:14;100420.50;;;11.99;100.00
71361;BME280;59166;48.908;1.870;2024-02-15T02:07:16;100422.13;;;11.95;100.00
71361;BME280;59166;48.908;1.870;2024-02-15T02:12:17;100416.16;;;11.93;100.00
71361;BME280;59166;48.908;1.870;2024-02-15T02:17:20;100412.91;;;11.96;100.00
71361;BME280;59166;48.908;1.870;2024-02-15T02:22:21;100406.94;;;11.84;100.00
71361;BME280;59166;48.908;1.870;2024-02-15T02:27:23;100395.00;;;11.80;100.00
71361;BME280;59166;48.908;1.870;2024-02-15T02:32:25;100388.50;;;11.76;100.00
71361;BME280;59166;48.908;1.870;2024-02-15T02:37:26;100387.13;;;11.68;100.00
71361;BME280;59166;48.908;1.870;2024-02-15T02:42:28;100378.16;;;11.63;100.00
71361;BME280;59166;48.908;1.870;2024-02-15T02:47:29;100368.69;;;11.60;100.00
71361;BME280;59166;48.908;1.870;2024-02-15T02:52:30;100362.47;;;11.60;100.00
71361;BME280;59166;48.908;1.870;2024-02-15T02:57:32;100355.94;;;11.56;100.00
71361;BME280;59166;48.908;1.870;2024-02-15T03:02:33;100355.94;;;11.51;100.00
71361;BME280;59166;48.908;1.870;2024-02-15T03:07:34;100357.84;;;11.50;100.00
71361;BME280;59166;48.908;1.870;2024-02-15T03:12:37;100355.13;;;11.50;100.00
71361;BME280;59166;48.908;1.870;2024-02-15T03:17:38;100342.13;;;11.52;100.00
71361;BME280;59166;48.908;1.870;2024-02-15T03:22:39;100341.59;;;11.50;100.00
71361;BME280;59166;48.908;1.870;2024-02-15T03:27:41;100333.44;;;11.45;100.00
71361;BME280;59166;48.908;1.870;2024-02-15T03:32:42;100334.03;;;11.47;100.00
71361;BME280;59166;48.908;1.870;2024-02-15T03:37:43;100324.00;;;11.48;100.00
71361;BME280;59166;48.908;1.870;2024-02-15T03:42:46;100323.16;;;11.42;100.00
71361;BME280;59166;48.908;1.870;2024-02-15T03:47:46;100315.63;;;11.44;100.00
71361;BME280;59166;48.908;1.870;2024-02-15T03:52:47;100322.13;;;11.48;100.00
71361;BME280;59166;48.908;1.870;2024-02-15T03:57:49;100309.38;;;11.49;100.00
71361;BME280;59166;48.908;1.870;2024-02-15T04:02:50;100314.00;;;11.48;100.00
71361;BME280;59166;48.908;1.870;2024-02-15T04:07:51;100306.16;;;11.47;100.00
71361;BME280;59166;48.908;1.870;2024-02-15T04:12:53;100309.09;;;11.45;100.00
71361;BME280;59166;48.908;1.870;2024-02-15T04:17:54;100304.25;;;11.47;100.00
71361;BME280;59166;48.908;1.870;2024-02-15T04:22:55;100301.84;;;11.51;100.00
71361;BME280;59166;48.908;1.870;2024-02-15T04:27:57;100298.03;;;11.47;100.00
71361;BME280;59166;48.908;1.870;2024-02-15T04:32:58;100299.63;;;11.43;100.00
71361;BME280;59166;48.908;1.870;2024-02-15T04:37:59;100299.91;;;11.41;100.00
71361;BME280;59166;48.908;1.870;2024-02-15T04:43:01;100295.59;;;11.40;100.00
71361;BME280;59166;48.908;1.870;2024-02-15T04:48:02;100288.53;;;11.39;100.00
71361;BME280;59166;48.908;1.870;2024-02-15T04:53:03;100286.66;;;11.34;100.00
71361;BME280;59166;48.908;1.870;2024-02-15T04:58:05;100283.13;;;11.34;100.00
71361;BME280;59166;48.908;1.870;2024-02-15T05:03:06;100282.84;;;11.35;100.00
71361;BME280;59166;48.908;1.870;2024-02-15T05:08:07;100273.63;;;11.31;100.00
71361;BME280;59166;48.908;1.870;2024-02-15T05:13:29;100272.03;;;11.30;100.00
71361;BME280;59166;48.908;1.870;2024-02-15T05:18:29;100264.16;;;11.29;100.00
71361;BME280;59166;48.908;1.870;2024-02-15T05:23:30;100264.16;;;11.29;100.00
71361;BME280;59166;48.908;1.870;2024-02-15T05:28:33;100261.47;;;11.24;100.00
71361;BME280;59166;48.908;1.870;2024-02-15T05:33:33;100261.47;;;11.24;100.00
71361;BME280;59166;48.908;1.870;2024-02-15T05:38:34;100268.75;;;11.23;100.00
71361;BME280;59166;48.908;1.870;2024-02-15T05:43:36;100264.94;;;11.19;100.00
71361;BME280;59166;48.908;1.870;2024-02-15T05:48:37;100264.13;;;11.19;100.00
71361;BME280;59166;48.908;1.870;2024-02-15T05:53:38;100250.34;;;11.15;100.00
71361;BME280;59166;48.908;1.870;2024-02-15T05:58:41;100247.09;;;11.13;100.00
71361;BME280;59166;48.908;1.870;2024-02-15T06:03:41;100248.97;;;11.13;100.00
71361;BME280;59166;48.908;1.870;2024-02-15T06:08:46;100254.09;;;11.09;100.00
71361;BME280;59166;48.908;1.870;2024-02-15T06:13:49;100244.34;;;11.08;100.00
71361;BME280;59166;48.908;1.870;2024-02-15T06:18:49;100239.75;;;11.09;100.00
71361;BME280;59166;48.908;1.870;2024-02-15T06:23:50;100241.13;;;11.06;100.00
71361;BME280;59166;48.908;1.870;2024-02-15T06:28:52;100242.19;;;11.05;100.00
71361;BME280;59166;48.908;1.870;2024-02-15T06:33:53;100228.66;;;11.00;100.00
71361;BME280;59166;48.908;1.870;2024-02-15T06:38:54;100212.94;;;10.92;100.00
71361;BME280;59166;48.908;1.870;2024-02-15T06:43:56;100208.06;;;10.89;100.00
71361;BME280;59166;48.908;1.870;2024-02-15T06:48:57;100196.44;;;10.83;100.00
71361;BME280;59166;48.908;1.870;2024-02-15T06:53:58;100194.81;;;10.88;100.00
71361;BME280;59166;48.908;1.870;2024-02-15T06:59:00;100196.16;;;10.85;100.00
71361;BME280;59166;48.908;1.870;2024-02-15T07:04:01;100203.25;;;10.96;100.00
71361;BME280;59166;48.908;1.870;2024-02-15T07:09:01;100207.31;;;11.04;100.00
71361;BME280;59166;48.908;1.870;2024-02-15T07:14:04;100206.50;;;11.03;100.00
71361;BME280;59166;48.908;1.870;2024-02-15T07:19:04;100190.81;;;11.05;100.00
71361;BME280;59166;48.908;1.870;2024-02-15T07:24:05;100199.19;;;10.94;100.00
71361;BME280;59166;48.908;1.870;2024-02-15T07:29:08;100196.19;;;10.90;100.00
71361;BME280;59166;48.908;1.870;2024-02-15T07:34:08;100196.19;;;10.90;100.00
71361;BME280;59166;48.908;1.870;2024-02-15T07:39:09;100184.53;;;10.84;100.00
71361;BME280;59166;48.908;1.870;2024-02-15T07:44:11;100171.59;;;10.87;100.00
71361;BME280;59166;48.908;1.870;2024-02-15T07:49:12;100167.00;;;10.92;100.00
71361;BME280;59166;48.908;1.870;2024-02-15T07:54:13;100165.16;;;11.03;100.00
71361;BME280;59166;48.908;1.870;2024-02-15T07:59:15;100149.47;;;11.05;100.00
71361;BME280;59166;48.908;1.870;2024-02-15T08:04:16;100151.41;;;11.24;100.00
71361;BME280;59166;48.908;1.870;2024-02-15T08:09:17;100154.69;;;11.82;100.00
71361;BME280;59166;48.908;1.870;2024-02-15T08:14:19;100142.72;;;12.08;100.00
71361;BME280;59166;48.908;1.870;2024-02-15T08:19:20;100145.44;;;12.08;100.00
71361;BME280;59166;48.908;1.870;2024-02-15T08:24:20;100144.06;;;12.11;100.00
71361;BME280;59166;48.908;1.870;2024-02-15T08:29:23;100130.25;;;12.07;100.00
71361;BME280;59166;48.908;1.870;2024-02-15T08:34:24;100116.44;;;12.19;100.00
71361;BME280;59166;48.908;1.870;2024-02-15T08:39:25;100123.63;;;12.59;100.00
71361;BME280;59166;48.908;1.870;2024-02-15T08:44:27;100121.34;;;12.81;100.00
71361;BME280;59166;48.908;1.870;2024-02-15T08:49:28;100112.19;;;12.72;100.00
71361;BME280;59166;48.908;1.870;2024-02-15T08:54:28;100103.25;;;13.15;100.00
71361;BME280;59166;48.908;1.870;2024-02-15T08:59:31;100089.59;;;13.25;100.00
71361;BME280;59166;48.908;1.870;2024-02-15T09:04:31;100087.50;;;13.17;100.00
71361;BME280;59166;48.908;1.870;2024-02-15T09:09:32;100080.91;;;13.28;100.00
71361;BME280;59166;48.908;1.870;2024-02-15T09:14:35;100085.00;;;13.55;100.00
71361;BME280;59166;48.908;1.870;2024-02-15T09:19:36;100077.03;;;13.73;100.00
71361;BME280;59166;48.908;1.870;2024-02-15T09:24:37;100070.09;;;13.57;100.00
71361;BME280;59166;48.908;1.870;2024-02-15T09:29:39;100063.47;;;13.34;100.00
71361;BME280;59166;48.908;1.870;2024-02-15T09:34:40;100060.44;;;13.41;100.00
71361;BME280;59166;48.908;1.870;2024-02-15T09:39:41;100057.47;;;13.37;100.00
71361;BME280;59166;48.908;1.870;2024-02-15T09:44:43;100058.38;;;13.28;100.00
71361;BME280;59166;48.908;1.870;2024-02-15T09:49:44;100060.34;;;13.22;100.00
71361;BME280;59166;48.908;1.870;2024-02-15T09:54:46;100049.81;;;13.16;100.00
71361;BME280;59166;48.908;1.870;2024-02-15T09:59:49;100041.34;;;13.22;100.00
71361;BME280;59166;48.908;1.870;2024-02-15T10:04:49;100042.16;;;13.52;100.00
71361;BME280;59166;48.908;1.870;2024-02-15T10:09:50;100050.75;;;13.93;100.00
71361;BME280;59166;48.908;1.870;2024-02-15T10:14:52;100039.22;;;14.48;100.00
71361;BME280;59166;48.908;1.870;2024-02-15T10:20:06;100043.03;;;14.84;100.00
71361;BME280;59166;48.908;1.870;2024-02-15T10:25:13;100033.72;;;15.09;100.00
71361;BME280;59166;48.908;1.870;2024-02-15T10:30:17;100028.50;;;15.13;100.00
71361;BME280;59166;48.908;1.870;2024-02-15T10:35:21;100010.78;;;14.97;100.00
71361;BME280;59166;48.908;1.870;2024-02-15T10:40:22;100010.50;;;14.98;100.00
71361;BME280;59166;48.908;1.870;2024-02-15T10:45:25;99995.41;;;14.87;100.00
71361;BME280;59166;48.908;1.870;2024-02-15T10:50:26;99984.31;;;15.02;100.00
71361;BME280;59166;48.908;1.870;2024-02-15T10:55:37;99980.13;;;15.23;100.00
71361;BME280;59166;48.908;1.870;2024-02-15T11:00:41;99971.59;;;15.30;100.00
71361;BME280;59166;48.908;1.870;2024-02-15T11:05:45;99972.19;;;15.40;100.00
71361;BME280;59166;48.908;1.870;2024-02-15T11:10:47;99960.84;;;15.52;100.00
71361;BME280;59166;48.908;1.870;2024-02-15T11:15:57;99940.97;;;15.65;97.05
71361;BME280;59166;48.908;1.870;2024-02-15T11:20:58;99962.34;;;15.99;95.54
71361;BME280;59166;48.908;1.870;2024-02-15T11:25:59;99958.34;;;16.10;91.45
71361;BME280;59166;48.908;1.870;2024-02-15T11:31:01;99942.25;;;16.22;90.00
71361;BME280;59166;48.908;1.870;2024-02-15T11:36:03;99931.50;;;16.39;89.06
71361;BME280;59166;48.908;1.870;2024-02-15T11:41:04;99918.94;;;16.52;89.06
71361;BME280;59166;48.908;1.870;2024-02-15T11:46:08;99914.00;;;16.54;88.09
71361;BME280;59166;48.908;1.870;2024-02-15T11:51:09;99908.88;;;16.75;86.29
71361;BME280;59166;48.908;1.870;2024-02-15T11:56:10;99894.09;;;16.98;86.67
71361;BME280;59166;48.908;1.870;2024-02-15T12:01:12;99894.94;;;17.07;82.62
71361;BME280;59166;48.908;1.870;2024-02-15T12:06:17;99893.72;;;16.91;83.02
71361;BME280;59166;48.908;1.870;2024-02-15T12:11:18;99881.16;;;16.81;82.90
71361;BME280;59166;48.908;1.870;2024-02-15T12:16:20;99877.47;;;16.86;89.73
71361;BME280;59166;48.908;1.870;2024-02-15T12:21:23;99871.34;;;16.80;87.49
71361;BME280;59166;48.908;1.870;2024-02-15T12:26:24;99861.09;;;16.86;86.06
71361;BME280;59166;48.908;1.870;2024-02-15T12:31:27;99848.19;;;17.00;85.10
71361;BME280;59166;48.908;1.870;2024-02-15T12:36:28;99835.81;;;17.03;85.07
71361;BME280;59166;48.908;1.870;2024-02-15T12:41:29;99829.59;;;17.02;87.14
71361;BME280;59166;48.908;1.870;2024-02-15T12:46:32;99820.69;;;16.88;87.72
71361;BME280;59166;48.908;1.870;2024-02-15T12:51:33;99809.88;;;16.83;87.14
71361;BME280;59166;48.908;1.870;2024-02-15T12:56:34;99806.03;;;17.15;88.67
71361;BME280;59166;48.908;1.870;2024-02-15T13:01:36;99810.59;;;17.36;85.16
71361;BME280;59166;48.908;1.870;2024-02-15T13:06:37;99798.97;;;17.62;83.66
71361;BME280;59166;48.908;1.870;2024-02-15T13:11:37;99785.13;;;17.58;84.29
71361;BME280;59166;48.908;1.870;2024-02-15T13:16:40;99773.56;;;17.53;82.66
71361;BME280;59166;48.908;1.870;2024-02-15T13:21:41;99778.84;;;17.58;81.98
71361;BME280;59166;48.908;1.870;2024-02-15T13:26:42;99758.63;;;17.67;83.34
71361;BME280;59166;48.908;1.870;2024-02-15T13:31:44;99747.56;;;17.72;81.68
71361;BME280;59166;48.908;1.870;2024-02-15T13:36:45;99743.03;;;17.85;80.33
71361;BME280;59166;48.908;1.870;2024-02-15T13:41:45;99736.28;;;17.91;80.45
71361;BME280;59166;48.908;1.870;2024-02-15T13:46:48;99722.28;;;18.01;78.60
71361;BME280;59166;48.908;1.870;2024-02-15T13:51:48;99709.28;;;17.98;76.74
71361;BME280;59166;48.908;1.870;2024-02-15T13:56:49;99703.00;;;18.06;78.18
71361;BME280;59166;48.908;1.870;2024-02-15T14:01:52;99688.72;;;17.92;78.32
71361;BME280;59166;48.908;1.870;2024-02-15T14:06:53;99683.88;;;17.80;76.66
71361;BME280;59166;48.908;1.870;2024-02-15T14:11:54;99675.06;;;17.75;78.10
71361;BME280;59166;48.908;1.870;2024-02-15T14:16:56;99678.59;;;17.67;76.40
71361;BME280;59166;48.908;1.870;2024-02-15T14:21:57;99678.44;;;17.72;78.73
71361;BME280;59166;48.908;1.870;2024-02-15T14:26:58;99684.88;;;17.76;78.36
71361;BME280;59166;48.908;1.870;2024-02-15T14:32:00;99669.56;;;18.01;76.11
71361;BME280;59166;48.908;1.870;2024-02-15T14:37:01;99671.81;;;18.16;75.61
71361;BME280;59166;48.908;1.870;2024-02-15T14:42:02;99676.44;;;18.32;76.48
71361;BME280;59166;48.908;1.870;2024-02-15T14:47:04;99672.88;;;18.32;75.83
71361;BME280;59166;48.908;1.870;2024-02-15T14:52:06;99677.56;;;18.14;77.24
71361;BME280;59166;48.908;1.870;2024-02-15T14:57:06;99676.66;;;17.93;75.88
71361;BME280;59166;48.908;1.870;2024-02-15T15:02:09;99674.25;;;17.83;78.40
71361;BME280;59166;48.908;1.870;2024-02-15T15:07:09;99667.97;;;17.74;78.99
71361;BME280;59166;48.908;1.870;2024-02-15T15:12:10;99678.59;;;17.67;80.54
71361;BME280;59166;48.908;1.870;2024-02-15T15:17:12;99676.19;;;17.65;83.10
71361;BME280;59166;48.908;1.870;2024-02-15T15:22:13;99662.25;;;17.50;83.11
71361;BME280;59166;48.908;1.870;2024-02-15T15:27:14;99650.97;;;17.34;82.57
71361;BME280;59166;48.908;1.870;2024-02-15T15:32:16;99659.16;;;17.25;85.07
71361;BME280;59166;48.908;1.870;2024-02-15T15:37:17;99662.47;;;17.05;86.24
71361;BME280;59166;48.908;1.870;2024-02-15T15:42:18;99677.06;;;16.92;87.90
71361;BME280;59166;48.908;1.870;2024-02-15T15:47:20;99671.56;;;16.83;88.54
71361;BME280;59166;48.908;1.870;2024-02-15T15:52:21;99678.13;;;16.82;89.80
71361;BME280;59166;48.908;1.870;2024-02-15T15:57:22;99673.50;;;16.83;91.27
71361;BME280;59166;48.908;1.870;2024-02-15T16:02:24;99662.41;;;16.79;91.92
71361;BME280;59166;48.908;1.870;2024-02-15T16:07:25;99662.69;;;16.69;93.65
71361;BME280;59166;48.908;1.870;2024-02-15T16:12:26;99663.31;;;16.58;95.11
71361;BME280;59166;48.908;1.870;2024-02-15T16:17:28;99668.91;;;16.53;96.70
71361;BME280;59166;48.908;1.870;2024-02-15T16:22:29;99646.59;;;16.51;97.07
71361;BME280;59166;48.908;1.870;2024-02-15T16:27:29;99643.34;;;16.40;97.72
71361;BME280;59166;48.908;1.870;2024-02-15T16:32:32;99644.63;;;16.34;98.13
71361;BME280;59166;48.908;1.870;2024-02-15T16:37:32;99662.69;;;16.21;99.06
71361;BME280;59166;48.908;1.870;2024-02-15T16:42:33;99659.91;;;16.13;99.74
71361;BME280;59166;48.908;1.870;2024-02-15T16:47:35;99667.19;;;16.04;99.75
71361;BME280;59166;48.908;1.870;2024-02-15T16:52:37;99672.28;;;15.97;99.72
71361;BME280;59166;48.908;1.870;2024-02-15T16:57:38;99675.28;;;15.95;99.50
71361;BME280;59166;48.908;1.870;2024-02-15T17:02:41;99674.81;;;15.93;98.81
71361;BME280;59166;48.908;1.870;2024-02-15T17:07:42;99663.59;;;15.94;99.08
71361;BME280;59166;48.908;1.870;2024-02-15T17:12:43;99660.44;;;15.79;99.91
71361;BME280;59166;48.908;1.870;2024-02-15T17:17:45;99674.13;;;15.65;100.00
71361;BME280;59166;48.908;1.870;2024-02-15T17:22:46;99664.78;;;15.58;100.00
71361;BME280;59166;48.908;1.870;2024-02-15T17:27:46;99662.28;;;15.48;99.91
71361;BME280;59166;48.908;1.870;2024-02-15T17:32:49;99675.53;;;15.40;99.82
71361;BME280;59166;48.908;1.870;2024-02-15T17:37:49;99671.50;;;15.38;100.00
71361;BME280;59166;48.908;1.870;2024-02-15T17:42:50;99679.38;;;15.39;99.99
71361;BME280;59166;48.908;1.870;2024-02-15T17:47:52;99680.97;;;15.40;99.77
71361;BME280;59166;48.908;1.870;2024-02-15T17:52:53;99679.00;;;15.32;100.00
71361;BME280;59166;48.908;1.870;2024-02-15T17:57:54;99682.41;;;15.24;100.00
71361;BME280;59166;48.908;1.870;2024-02-15T18:02:57;99676.78;;;15.21;100.00
71361;BME280;59166;48.908;1.870;2024-02-15T18:07:57;99672.47;;;15.20;100.00
71361;BME280;59166;48.908;1.870;2024-02-15T18:12:58;99670.03;;;15.18;100.00
71361;BME280;59166;48.908;1.870;2024-02-15T18:18:01;99658.06;;;15.19;100.00
71361;BME280;59166;48.908;1.870;2024-02-15T18:23:01;99657.53;;;15.17;100.00
71361;BME280;59166;48.908;1.870;2024-02-15T18:28:03;99649.19;;;15.14;100.00
71361;BME280;59166;48.908;1.870;2024-02-15T18:33:06;99660.50;;;15.07;100.00
71361;BME280;59166;48.908;1.870;2024-02-15T18:38:07;99646.22;;;15.02;100.00
71361;BME280;59166;48.908;1.870;2024-02-15T18:43:08;99639.97;;;15.01;100.00
71361;BME280;59166;48.908;1.870;2024-02-15T18:48:10;99644.78;;;15.04;100.00
71361;BME280;59166;48.908;1.870;2024-02-15T18:53:11;99636.13;;;15.02;100.00
71361;BME280;59166;48.908;1.870;2024-02-15T18:58:12;99638.25;;;15.05;100.00
71361;BME280;59166;48.908;1.870;2024-02-15T19:03:14;99637.72;;;15.03;100.00
71361;BME280;59166;48.908;1.870;2024-02-15T19:08:15;99648.22;;;15.10;100.00
71361;BME280;59166;48.908;1.870;2024-02-15T19:13:15;99653.25;;;15.03;100.00
71361;BME280;59166;48.908;1.870;2024-02-15T19:18:18;99651.94;;;15.00;100.00
71361;BME280;59166;48.908;1.870;2024-02-15T19:23:19;99662.13;;;14.95;100.00
71361;BME280;59166;48.908;1.870;2024-02-15T19:28:19;99658.72;;;15.03;100.00
71361;BME280;59166;48.908;1.870;2024-02-15T19:33:21;99662.13;;;14.95;100.00
71361;BME280;59166;48.908;1.870;2024-02-15T19:38:22;99647.50;;;14.90;100.00
71361;BME280;59166;48.908;1.870;2024-02-15T19:43:23;99657.28;;;14.91;100.00
71361;BME280;59166;48.908;1.870;2024-02-15T19:48:25;99659.13;;;14.96;100.00
71361;BME280;59166;48.908;1.870;2024-02-15T19:53:26;99655.38;;;14.92;100.00
71361;BME280;59166;48.908;1.870;2024-02-15T19:58:27;99653.25;;;14.89;100.00
71361;BME280;59166;48.908;1.870;2024-02-15T20:03:29;99658.50;;;14.85;99.56
71361;BME280;59166;48.908;1.870;2024-02-15T20:08:30;99653.06;;;14.85;99.11
71361;BME280;59166;48.908;1.870;2024-02-15T20:13:31;99652.75;;;14.87;98.54
71361;BME280;59166;48.908;1.870;2024-02-15T20:18:34;99649.00;;;14.83;98.82
71361;BME280;59166;48.908;1.870;2024-02-15T20:23:38;99645.81;;;14.81;99.18
71361;BME280;59166;48.908;1.870;2024-02-15T20:28:39;99656.28;;;14.74;98.86
71361;BME280;59166;48.908;1.870;2024-02-15T20:33:41;99651.44;;;14.71;99.29
71361;BME280;59166;48.908;1.870;2024-02-15T20:38:42;99641.47;;;14.66;99.12
71361;BME280;59166;48.908;1.870;2024-02-15T20:43:43;99647.22;;;14.65;99.30
71361;BME280;59166;48.908;1.870;2024-02-15T20:48:45;99657.78;;;14.66;99.04
71361;BME280;59166;48.908;1.870;2024-02-15T20:53:46;99661.03;;;14.68;98.41
71361;BME280;59166;48.908;1.870;2024-02-15T20:58:47;99649.75;;;14.61;99.22
71361;BME280;59166;48.908;1.870;2024-02-15T21:03:49;99651.66;;;14.61;99.02
71361;BME280;59166;48.908;1.870;2024-02-15T21:08:51;99638.34;;;14.59;99.26
71361;BME280;59166;48.908;1.870;2024-02-15T21:13:52;99647.84;;;14.62;99.38
71361;BME280;59166;48.908;1.870;2024-02-15T21:18:55;99641.88;;;14.60;98.58
71361;BME280;59166;48.908;1.870;2024-02-15T21:23:55;99639.16;;;14.60;98.67
71361;BME280;59166;48.908;1.870;2024-02-15T21:28:56;99635.63;;;14.59;98.40
71361;BME280;59166;48.908;1.870;2024-02-15T21:33:58;99628.09;;;14.56;98.91
71361;BME280;59166;48.908;1.870;2024-02-15T21:38:59;99628.63;;;14.58;98.63
71361;BME280;59166;48.908;1.870;2024-02-15T21:44:00;99631.63;;;14.57;98.61
71361;BME280;59166;48.908;1.870;2024-02-15T21:49:02;99626.78;;;14.54;99.25
71361;BME280;59166;48.908;1.870;2024-02-15T21:54:03;99627.09;;;14.52;99.96
71361;BME280;59166;48.908;1.870;2024-02-15T21:59:04;99625.56;;;14.46;100.00
71361;BME280;59166;48.908;1.870;2024-02-15T22:04:07;99628.28;;;14.46;99.72
71361;BME280;59166;48.908;1.870;2024-02-15T22:09:07;99623.66;;;14.47;100.00
71361;BME280;59166;48.908;1.870;2024-02-15T22:14:08;99630.22;;;14.46;100.00
71361;BME280;59166;48.908;1.870;2024-02-15T22:19:11;99622.84;;;14.46;100.00
71361;BME280;59166;48.908;1.870;2024-02-15T22:24:11;99619.84;;;14.48;100.00
71361;BME280;59166;48.908;1.870;2024-02-15T22:29:12;99623.88;;;14.50;99.70
71361;BME280;59166;48.908;1.870;2024-02-15T22:34:14;99621.06;;;14.55;99.66
71361;BME280;59166;48.908;1.870;2024-02-15T22:39:15;99617.75;;;14.58;99.53
71361;BME280;59166;48.908;1.870;2024-02-15T22:44:16;99612.50;;;14.62;98.74
71361;BME280;59166;48.908;1.870;2024-02-15T22:49:18;99613.31;;;14.62;99.40
71361;BME280;59166;48.908;1.870;2024-02-15T22:54:19;99608.25;;;14.69;98.91
71361;BME280;59166;48.908;1.870;2024-02-15T22:59:20;99614.78;;;14.82;98.00
71361;BME280;59166;48.908;1.870;2024-02-15T23:04:22;99623.44;;;14.84;98.38
71361;BME280;59166;48.908;1.870;2024-02-15T23:09:23;99616.38;;;14.83;98.25
71361;BME280;59166;48.908;1.870;2024-02-15T23:14:25;99618.50;;;14.86;97.86
71361;BME280;59166;48.908;1.870;2024-02-15T23:19:28;99624.44;;;14.88;97.64
71361;BME280;59166;48.908;1.870;2024-02-15T23:24:28;99625.34;;;14.83;98.79
71361;BME280;59166;48.908;1.870;2024-02-15T23:29:29;99618.13;;;14.79;98.50
71361;BME280;59166;48.908;1.870;2024-02-15T23:34:31;99628.28;;;14.73;99.96
71361;BME280;59166;48.908;1.870;2024-02-15T23:39:32;99622.66;;;14.70;99.94
71361;BME280;59166;48.908;1.870;2024-02-15T23:44:34;99618.34;;;14.69;100.00
71361;BME280;59166;48.908;1.870;2024-02-15T23:49:36;99625.69;;;14.68;100.00
71361;BME280;59166;48.908;1.870;2024-02-15T23:54:37;99621.53;;;14.71;100.00
71361;BME280;59166;48.908;1.870;2024-02-15T23:59:39;99626.09;;;14.75;100.00
